Time;durP1;ratioP1;P1;durP2;ratioP2;P2;SDS_P1;SDS_P2;PMS_P1;PMS_P2;Temp;Humidity;BMP_temperature;BMP_pressure;BME280_temperature;BME280_humidity;BME280_pressure;Samples;Min_cycle;Max_cycle;Signal;HPM_P1;HPM_P2
2023/05/30 00:00:32;;;;;;;6.20;1.97;;;10.90;99.90;;;;;;4924361;29;20203;-65
2023/05/30 00:02:59;;;;;;;7.27;1.63;;;10.90;99.90;;;;;;4912656;29;20236;-66
2023/05/30 00:05:26;;;;;;;4.93;2.00;;;10.80;99.90;;;;;;4917097;29;20196;-66
2023/05/30 00:07:53;;;;;;;1.50;1.40;;;10.80;99.90;;;;;;4911725;29;20216;-66
2023/05/30 00:10:20;;;;;;;7.20;2.13;;;10.80;99.90;;;;;;4913602;29;20247;-66
2023/05/30 00:12:47;;;;;;;7.20;2.10;;;10.80;99.90;;;;;;4918494;29;20204;-66
2023/05/30 00:15:16;;;;;;;6.53;1.57;;;10.90;99.90;;;;;;4909243;29;20201;-66
2023/05/30 00:17:43;;;;;;;6.37;1.70;;;10.90;99.90;;;;;;4914534;29;20597;-65
2023/05/30 00:20:10;;;;;;;11.03;2.43;;;10.70;99.90;;;;;;4910912;29;20215;-65
2023/05/30 00:22:40;;;;;;;5.63;2.50;;;10.70;99.90;;;;;;4915981;29;20196;-66
2023/05/30 00:25:09;;;;;;;6.23;1.87;;;10.70;99.90;;;;;;4915229;29;20200;-65
2023/05/30 00:27:36;;;;;;;2.03;1.50;;;10.70;99.90;;;;;;4912117;29;20202;-66
2023/05/30 00:30:04;;;;;;;5.60;1.90;;;10.70;99.90;;;;;;4906502;29;20299;-67
2023/05/30 00:32:33;;;;;;;3.33;1.60;;;10.70;99.90;;;;;;4913759;29;20200;-66
2023/05/30 00:35:00;;;;;;;7.67;2.23;;;10.60;99.90;;;;;;4916502;29;20212;-66
2023/05/30 00:37:32;;;;;;;14.57;2.27;;;10.60;99.90;;;;;;4923818;29;20592;-66
2023/05/30 00:39:59;;;;;;;8.70;2.27;;;10.50;99.90;;;;;;4914054;29;20197;-66
2023/05/30 00:42:28;;;;;;;6.50;2.10;;;10.50;99.90;;;;;;4916133;29;20192;-65
2023/05/30 00:44:55;;;;;;;7.03;2.60;;;10.40;99.90;;;;;;4910151;29;20192;-65
2023/05/30 00:47:22;;;;;;;10.47;2.00;;;10.40;99.90;;;;;;4915829;29;20188;-66
2023/05/30 00:49:51;;;;;;;11.77;2.30;;;10.50;99.90;;;;;;4917059;29;20210;-67
2023/05/30 00:52:19;;;;;;;5.50;2.27;;;10.40;99.90;;;;;;4909176;29;20200;-66
2023/05/30 00:54:47;;;;;;;11.13;2.10;;;10.40;99.90;;;;;;4911870;29;20671;-66
2023/05/30 00:57:15;;;;;;;11.03;2.10;;;10.40;99.90;;;;;;4909908;29;20200;-66
2023/05/30 00:59:43;;;;;;;8.77;2.23;;;10.40;99.90;;;;;;4908662;29;20200;-65
2023/05/30 01:02:11;;;;;;;10.27;2.67;;;10.30;99.90;;;;;;4913621;29;20247;-59
2023/05/30 01:04:38;;;;;;;6.30;1.90;;;10.40;99.90;;;;;;4917897;29;20200;-60
2023/05/30 01:07:06;;;;;;;7.33;2.47;;;10.50;99.90;;;;;;4922327;29;20269;-58
2023/05/30 01:09:33;;;;;;;6.70;2.30;;;10.60;99.90;;;;;;4919240;29;20695;-66
2023/05/30 01:12:30;;;;;;;9.37;2.27;;;10.70;99.90;;;;;;4933148;29;20198;-65
2023/05/30 01:15:01;;;;;;;7.87;1.90;;;10.80;99.90;;;;;;4927806;29;20211;-65
2023/05/30 01:17:31;;;;;;;4.80;2.00;;;10.90;99.90;;;;;;4926567;29;20720;-65
2023/05/30 01:20:07;;;;;;;7.70;2.03;;;10.90;99.90;;;;;;4929178;29;20195;-66
2023/05/30 01:22:49;;;;;;;4.83;1.93;;;10.90;99.90;;;;;;4911565;29;20199;-65
2023/05/30 01:25:52;;;;;;;4.93;2.20;;;10.70;99.90;;;;;;4920430;29;20217;-65
2023/05/30 01:28:22;;;;;;;9.10;2.30;;;10.60;99.90;;;;;;4888503;29;20227;-65
2023/05/30 01:30:52;;;;;;;7.37;2.17;;;10.60;99.90;;;;;;4938258;29;20195;-65
2023/05/30 01:33:22;;;;;;;6.60;1.77;;;10.70;99.90;;;;;;4912365;29;20204;-66
2023/05/30 01:35:51;;;;;;;9.27;2.40;;;10.80;99.90;;;;;;4927025;29;20180;-67
2023/05/30 01:38:20;;;;;;;11.20;2.10;;;10.80;99.90;;;;;;4902309;29;20219;-66
2023/05/30 01:40:53;;;;;;;6.87;2.73;;;11.00;99.90;;;;;;4913759;29;20209;-66
2023/05/30 01:44:00;;;;;;;4.37;2.27;;;11.20;99.90;;;;;;4917270;29;20198;-66
2023/05/30 01:46:39;;;;;;;10.00;2.23;;;11.30;99.90;;;;;;4931662;29;20191;-65
2023/05/30 01:49:27;;;;;;;11.57;3.10;;;11.20;99.90;;;;;;4917396;29;20199;-66
2023/05/30 01:52:01;;;;;;;11.50;2.80;;;11.30;99.90;;;;;;4916907;29;20222;-65
2023/05/30 01:54:32;;;;;;;6.47;2.03;;;11.30;99.90;;;;;;4932932;29;20713;-67
2023/05/30 01:57:29;;;;;;;5.37;2.27;;;11.40;99.90;;;;;;4912076;29;20238;-59
2023/05/30 01:59:59;;;;;;;6.17;2.20;;;11.70;99.90;;;;;;4902935;29;20195;-59
2023/05/30 02:02:27;;;;;;;8.03;2.83;;;12.10;99.90;;;;;;4929414;29;20230;-59
2023/05/30 02:04:54;;;;;;;10.20;2.83;;;12.20;99.90;;;;;;4935735;29;20239;-68
2023/05/30 02:07:22;;;;;;;7.40;2.73;;;12.20;99.90;;;;;;4912121;29;22324;-67
2023/05/30 02:09:49;;;;;;;7.87;3.20;;;12.10;99.90;;;;;;4913644;29;20200;-60
2023/05/30 02:12:16;;;;;;;8.90;3.47;;;12.00;99.90;;;;;;4934333;29;20206;-61
2023/05/30 02:14:43;;;;;;;10.13;3.47;;;11.90;99.90;;;;;;4910575;29;20222;-60
2023/05/30 02:17:11;;;;;;;10.33;4.70;;;12.30;99.90;;;;;;4918591;29;20219;-59
2023/05/30 02:19:38;;;;;;;7.40;3.53;;;12.70;99.90;;;;;;4919590;29;20285;-60
2023/05/30 02:22:07;;;;;;;10.00;3.03;;;12.60;99.90;;;;;;4926354;29;20206;-59
2023/05/30 02:24:34;;;;;;;8.57;3.40;;;12.60;99.90;;;;;;4929832;29;20211;-60
2023/05/30 02:27:01;;;;;;;6.60;2.73;;;12.70;99.90;;;;;;4930850;29;20246;-60
2023/05/30 02:29:28;;;;;;;12.03;3.23;;;12.60;99.90;;;;;;4932224;29;20195;-60
2023/05/30 02:31:55;;;;;;;10.13;2.77;;;12.50;99.90;;;;;;4912168;29;20208;-59
2023/05/30 02:34:22;;;;;;;5.03;2.70;;;12.30;99.90;;;;;;4919566;29;20203;-60
2023/05/30 02:36:49;;;;;;;5.40;2.93;;;12.20;99.90;;;;;;4925042;29;20195;-60
2023/05/30 02:39:17;;;;;;;10.37;3.13;;;12.40;99.90;;;;;;4903362;29;20538;-60
2023/05/30 02:41:44;;;;;;;11.30;3.30;;;12.60;99.90;;;;;;4918853;29;20218;-67
2023/05/30 02:44:11;;;;;;;6.63;2.70;;;12.90;99.90;;;;;;4901577;29;20460;-65
2023/05/30 02:46:40;;;;;;;6.40;2.30;;;12.90;99.90;;;;;;4901260;29;20666;-66
2023/05/30 02:49:07;;;;;;;7.87;2.80;;;12.70;99.90;;;;;;4924687;29;20571;-59
2023/05/30 02:51:35;;;;;;;6.60;2.60;;;12.40;99.90;;;;;;4914017;29;20227;-59
2023/05/30 02:54:04;;;;;;;9.73;2.70;;;12.00;99.90;;;;;;4907913;29;20274;-60
2023/05/30 02:56:51;;;;;;;9.83;2.90;;;11.80;99.90;;;;;;4919464;29;20217;-59
2023/05/30 02:59:34;;;;;;;10.10;2.83;;;11.50;99.90;;;;;;4920111;29;20204;-65
2023/05/30 03:02:07;;;;;;;8.87;2.80;;;11.50;99.90;;;;;;4915333;29;20732;-64
2023/05/30 03:04:34;;;;;;;8.47;2.70;;;11.60;99.90;;;;;;4927583;29;20717;-64
2023/05/30 03:07:01;;;;;;;12.03;3.67;;;11.60;99.90;;;;;;4919032;29;20205;-64
2023/05/30 03:09:31;;;;;;;10.17;2.60;;;11.50;99.90;;;;;;4941125;29;20195;-64
2023/05/30 03:11:58;;;;;;;5.63;2.90;;;11.50;99.90;;;;;;4921261;29;20200;-65
2023/05/30 03:14:26;;;;;;;5.77;3.20;;;11.40;99.90;;;;;;4927721;29;20236;-58
2023/05/30 03:16:54;;;;;;;7.07;3.13;;;11.60;99.90;;;;;;4912603;29;20222;-57
2023/05/30 03:19:22;;;;;;;8.60;3.27;;;11.40;99.90;;;;;;4918564;29;20196;-58
2023/05/30 03:21:52;;;;;;;8.57;3.27;;;11.30;99.90;;;;;;4894758;29;20674;-58
2023/05/30 03:24:20;;;;;;;8.23;2.70;;;11.30;99.90;;;;;;4934079;29;20203;-59
2023/05/30 03:26:47;;;;;;;11.00;3.60;;;11.40;99.90;;;;;;4927421;29;20204;-58
2023/05/30 03:29:16;;;;;;;7.70;3.07;;;11.20;99.90;;;;;;4915633;29;20668;-59
2023/05/30 03:31:43;;;;;;;11.40;3.30;;;11.20;99.90;;;;;;4911427;29;20199;-58
2023/05/30 03:34:10;;;;;;;8.60;3.50;;;11.10;99.90;;;;;;4911216;29;20222;-58
2023/05/30 03:36:40;;;;;;;5.97;3.00;;;11.20;99.90;;;;;;4918136;29;20200;-59
2023/05/30 03:39:08;;;;;;;10.07;4.13;;;11.40;99.90;;;;;;4914113;29;20235;-59
2023/05/30 03:41:35;;;;;;;8.37;2.97;;;11.80;99.90;;;;;;4910823;29;20196;-60
2023/05/30 03:44:02;;;;;;;11.47;3.30;;;11.80;99.90;;;;;;4923280;29;20278;-59
2023/05/30 03:46:31;;;;;;;8.10;3.33;;;11.90;99.90;;;;;;4928032;29;20282;-60
2023/05/30 03:48:58;;;;;;;10.67;3.87;;;12.00;99.90;;;;;;4916424;29;20325;-59
2023/05/30 03:51:27;;;;;;;10.53;3.30;;;11.80;99.90;;;;;;4915051;29;20199;-59
2023/05/30 03:53:54;;;;;;;15.77;3.57;;;11.80;99.90;;;;;;4936645;29;20257;-57
2023/05/30 03:56:27;;;;;;;6.43;2.63;;;12.00;99.90;;;;;;4931627;29;20234;-65
2023/05/30 03:58:54;;;;;;;8.93;3.47;;;12.00;99.90;;;;;;4931180;29;20220;-65
2023/05/30 04:01:22;;;;;;;8.23;2.67;;;12.20;99.90;;;;;;4922725;29;20318;-65
2023/05/30 04:03:50;;;;;;;10.97;3.40;;;12.30;99.90;;;;;;4926871;28;20314;-66
2023/05/30 04:06:17;;;;;;;11.93;3.10;;;12.30;99.90;;;;;;4935175;29;20279;-66
2023/05/30 04:08:44;;;;;;;6.27;3.07;;;12.40;99.90;;;;;;4938981;29;20744;-65
2023/05/30 04:11:11;;;;;;;7.87;3.07;;;12.30;99.90;;;;;;4929992;29;20265;-66
2023/05/30 04:13:38;;;;;;;11.87;3.40;;;12.00;99.90;;;;;;4923340;29;20202;-68
2023/05/30 04:16:05;;;;;;;8.57;3.13;;;11.90;99.90;;;;;;4913708;29;20670;-67
2023/05/30 04:18:32;;;;;;;6.13;3.27;;;11.90;99.90;;;;;;4917588;29;20251;-65
2023/05/30 04:20:59;;;;;;;13.07;3.60;;;12.30;99.90;;;;;;4916664;29;20709;-66
2023/05/30 04:23:27;;;;;;;9.50;3.33;;;12.20;99.90;;;;;;4915194;29;20196;-71
2023/05/30 04:25:55;;;;;;;7.50;3.40;;;12.00;99.90;;;;;;4930526;29;20788;-65
2023/05/30 04:28:22;;;;;;;7.53;3.37;;;12.10;99.90;;;;;;4919631;29;20291;-66
2023/05/30 04:30:49;;;;;;;10.30;3.23;;;12.40;99.90;;;;;;4914071;29;20436;-66
2023/05/30 04:33:18;;;;;;;5.80;3.10;;;12.70;99.90;;;;;;4917069;29;20222;-67
2023/05/30 04:35:47;;;;;;;5.97;2.87;;;12.60;99.90;;;;;;4919621;29;20200;-67
2023/05/30 04:38:16;;;;;;;8.63;3.30;;;12.70;99.90;;;;;;4915087;29;20231;-68
2023/05/30 04:40:43;;;;;;;8.07;2.70;;;12.40;99.90;;;;;;4916185;29;20223;-66
2023/05/30 04:43:10;;;;;;;8.03;3.77;;;12.20;99.90;;;;;;4924168;29;20254;-67
2023/05/30 04:45:38;;;;;;;12.73;3.67;;;12.10;99.90;;;;;;4932530;29;20192;-66
2023/05/30 04:48:05;;;;;;;10.47;3.43;;;11.90;99.90;;;;;;4920744;29;20203;-67
2023/05/30 04:50:32;;;;;;;12.10;4.13;;;12.00;99.90;;;;;;4915949;29;20208;-71
2023/05/30 04:52:59;;;;;;;7.60;3.60;;;11.80;99.90;;;;;;4933863;29;20202;-66
2023/05/30 04:55:27;;;;;;;10.10;4.07;;;11.80;99.90;;;;;;4931341;29;20235;-66
2023/05/30 04:57:55;;;;;;;10.50;3.93;;;11.70;99.90;;;;;;4915451;29;20215;-66
2023/05/30 05:00:23;;;;;;;7.00;3.37;;;12.00;99.90;;;;;;4921689;29;20565;-67
2023/05/30 05:02:51;;;;;;;9.87;3.53;;;12.40;99.90;;;;;;4920805;29;20493;-69
2023/05/30 05:05:18;;;;;;;8.93;3.47;;;12.80;99.90;;;;;;4918823;29;20242;-66
2023/05/30 05:07:45;;;;;;;6.13;3.47;;;12.20;99.90;;;;;;4935553;29;20199;-66
2023/05/30 05:10:12;;;;;;;10.13;3.43;;;12.10;99.90;;;;;;4930638;29;21105;-66
2023/05/30 05:12:39;;;;;;;13.37;4.20;;;12.30;99.90;;;;;;4932805;29;20575;-70
2023/05/30 05:15:07;;;;;;;8.83;3.70;;;12.40;99.90;;;;;;4930191;29;20757;-68
2023/05/30 05:17:34;;;;;;;13.40;4.83;;;12.30;99.90;;;;;;4930174;29;20640;-67
2023/05/30 05:20:02;;;;;;;9.67;4.17;;;12.20;99.90;;;;;;4914824;29;20611;-66
2023/05/30 05:22:32;;;;;;;6.67;3.83;;;12.40;99.90;;;;;;4935381;29;20191;-67
2023/05/30 05:25:00;;;;;;;4.70;3.40;;;12.30;99.90;;;;;;4935797;29;20196;-67
2023/05/30 05:27:27;;;;;;;5.83;4.10;;;12.30;99.90;;;;;;4930791;29;20585;-66
2023/05/30 05:29:54;;;;;;;9.60;3.87;;;12.00;99.90;;;;;;4927118;29;20198;-66
2023/05/30 05:32:21;;;;;;;13.30;4.67;;;11.90;99.90;;;;;;4930408;29;20583;-66
2023/05/30 05:34:49;;;;;;;8.63;4.47;;;11.80;99.90;;;;;;4918826;29;20896;-66
2023/05/30 05:37:19;;;;;;;12.83;4.50;;;11.90;99.90;;;;;;4931366;29;20267;-66
2023/05/30 05:39:46;;;;;;;7.23;4.50;;;12.00;99.90;;;;;;4932680;29;20230;-65
2023/05/30 05:42:13;;;;;;;11.43;4.43;;;12.10;99.90;;;;;;4931402;29;20717;-66
2023/05/30 05:44:40;;;;;;;8.63;4.53;;;12.90;99.90;;;;;;4933041;29;20192;-65
2023/05/30 05:47:07;;;;;;;12.10;4.13;;;13.00;99.90;;;;;;4933676;29;20203;-66
2023/05/30 05:49:34;;;;;;;9.40;4.23;;;12.70;99.90;;;;;;4928240;29;20225;-66
2023/05/30 05:52:01;;;;;;;12.60;4.30;;;13.10;99.90;;;;;;4933925;29;20199;-66
2023/05/30 05:54:28;;;;;;;14.43;4.27;;;13.90;99.90;;;;;;4924858;29;20676;-66
2023/05/30 05:56:58;;;;;;;13.07;4.33;;;14.20;99.90;;;;;;4932845;29;20204;-65
2023/05/30 05:59:25;;;;;;;7.93;3.57;;;14.10;99.90;;;;;;4930788;29;20677;-68
2023/05/30 06:01:52;;;;;;;10.20;4.17;;;14.30;99.90;;;;;;4929904;29;20586;-66
2023/05/30 06:04:19;;;;;;;8.57;4.50;;;14.00;99.90;;;;;;4931028;29;20239;-68
2023/05/30 06:06:46;;;;;;;10.10;4.53;;;13.80;99.90;;;;;;4930590;29;20272;-66
2023/05/30 06:09:13;;;;;;;7.03;4.10;;;13.70;99.90;;;;;;4914674;29;20196;-67
2023/05/30 06:11:40;;;;;;;5.80;3.80;;;13.60;99.90;;;;;;4932841;29;20199;-66
2023/05/30 06:14:07;;;;;;;9.83;4.50;;;13.90;99.90;;;;;;4928594;29;20204;-67
2023/05/30 06:16:34;;;;;;;7.13;4.03;;;14.20;99.90;;;;;;4933955;29;20200;-65
2023/05/30 06:19:02;;;;;;;7.63;4.20;;;14.60;99.90;;;;;;4930947;29;20215;-67
2023/05/30 06:21:29;;;;;;;13.23;4.37;;;14.60;99.90;;;;;;4935630;29;20772;-68
2023/05/30 06:23:56;;;;;;;9.00;4.10;;;15.80;99.90;;;;;;4910063;29;20293;-67
2023/05/30 06:26:23;;;;;;;10.97;3.87;;;15.20;99.90;;;;;;4930015;29;20196;-66
2023/05/30 06:28:50;;;;;;;15.02;4.18;;;15.50;99.90;;;;;;4928504;29;20728;-66
2023/05/30 06:31:17;;;;;;;8.90;4.73;;;15.20;99.90;;;;;;4916018;29;20247;-66
2023/05/30 06:33:44;;;;;;;6.97;4.13;;;14.90;99.90;;;;;;4926420;29;20199;-66
2023/05/30 06:36:11;;;;;;;7.70;4.23;;;14.60;99.90;;;;;;4929402;29;20258;-67
2023/05/30 06:38:38;;;;;;;7.00;4.50;;;14.60;99.90;;;;;;4928998;29;20220;-66
2023/05/30 06:41:05;;;;;;;11.00;4.40;;;15.10;99.90;;;;;;4940612;29;20202;-66
2023/05/30 06:43:32;;;;;;;8.07;4.20;;;15.20;99.90;;;;;;4917450;29;20199;-66
2023/05/30 06:45:59;;;;;;;10.37;3.73;;;15.50;99.90;;;;;;4930972;29;20190;-66
2023/05/30 06:48:26;;;;;;;7.50;3.73;;;15.30;99.90;;;;;;4928973;29;20200;-67
2023/05/30 06:50:53;;;;;;;11.57;3.78;;;15.90;99.90;;;;;;4924164;29;20207;-66
2023/05/30 06:53:23;;;;;;;6.40;3.35;;;17.30;99.90;;;;;;4932932;29;20259;-66
2023/05/30 06:55:50;;;;;;;11.57;3.72;;;18.10;99.90;;;;;;4927060;29;20226;-65
2023/05/30 06:58:18;;;;;;;9.90;3.58;;;17.60;99.90;;;;;;4932403;29;20234;-65
2023/05/30 07:00:45;;;;;;;6.07;3.58;;;16.80;99.90;;;;;;4930349;29;20258;-65
2023/05/30 07:03:12;;;;;;;5.00;3.45;;;16.80;99.90;;;;;;4917404;29;20227;-65
2023/05/30 07:05:39;;;;;;;8.82;3.13;;;16.30;99.90;;;;;;4916253;29;20603;-66
2023/05/30 07:08:07;;;;;;;10.00;3.60;;;16.10;99.90;;;;;;4923504;29;20199;-66
2023/05/30 07:10:34;;;;;;;9.30;3.38;;;16.90;99.90;;;;;;4932372;29;20196;-65
2023/05/30 07:13:02;;;;;;;5.97;3.03;;;19.30;99.90;;;;;;4906838;29;20677;-66
2023/05/30 07:15:31;;;;;;;6.07;3.10;;;20.80;99.90;;;;;;4928163;29;20208;-66
2023/05/30 07:17:58;;;;;;;12.75;3.78;;;20.30;99.90;;;;;;4929370;29;20279;-67
2023/05/30 07:20:25;;;;;;;28.05;4.43;;;20.20;99.90;;;;;;4924227;29;20212;-68
2023/05/30 07:22:53;;;;;;;7.28;2.83;;;21.20;99.90;;;;;;4928589;29;20199;-66
2023/05/30 07:25:20;;;;;;;13.68;3.80;;;21.90;99.90;;;;;;4916321;29;20668;-68
2023/05/30 07:27:47;;;;;;;9.02;3.67;;;24.50;99.90;;;;;;4920987;29;20200;-67
2023/05/30 07:30:14;;;;;;;13.98;3.40;;;24.70;99.90;;;;;;4923501;29;20208;-70
2023/05/30 07:32:41;;;;;;;14.85;3.55;;;25.10;99.90;;;;;;4924388;29;20290;-68
2023/05/30 07:35:09;;;;;;;6.03;3.38;;;24.90;99.90;;;;;;4927074;29;20271;-69
2023/05/30 07:37:37;;;;;;;7.75;3.08;;;24.40;99.90;;;;;;4892531;29;20211;-65
2023/05/30 07:40:05;;;;;;;7.63;3.50;;;23.80;99.90;;;;;;4915655;29;20260;-67
2023/05/30 07:42:38;;;;;;;8.77;3.70;;;24.20;99.90;;;;;;4928566;29;22008;-70
2023/05/30 07:45:06;;;;;;;16.60;4.97;;;24.10;99.90;;;;;;4929742;29;20203;-70
2023/05/30 07:47:33;;;;;;;12.57;4.55;;;23.70;99.90;;;;;;4928944;29;20199;-70
2023/05/30 07:50:00;;;;;;;10.50;3.88;;;22.70;99.90;;;;;;4931158;29;20199;-70
2023/05/30 07:52:27;;;;;;;10.10;4.55;;;23.30;99.90;;;;;;4929393;29;20695;-70
2023/05/30 07:54:54;;;;;;;12.75;5.22;;;22.50;99.90;;;;;;4937132;29;20259;-70
2023/05/30 07:57:21;;;;;;;26.02;4.75;;;22.00;99.90;;;;;;4928663;29;20563;-70
2023/05/30 07:59:48;;;;;;;18.73;4.78;;;21.80;99.90;;;;;;4915355;29;20223;-70
2023/05/30 08:02:16;;;;;;;8.07;4.82;;;21.10;99.90;;;;;;4933830;29;20306;-69
2023/05/30 08:04:43;;;;;;;6.00;4.32;;;21.30;99.90;;;;;;4930951;29;20198;-70
2023/05/30 08:07:13;;;;;;;7.60;4.25;;;22.10;99.90;;;;;;4926477;29;20192;-70
2023/05/30 08:09:40;;;;;;;8.68;4.30;;;22.00;99.90;;;;;;4935450;29;20238;-68
2023/05/30 08:12:15;;;;;;;12.43;4.47;;;22.00;99.90;;;;;;4899170;29;20207;-70
2023/05/30 08:14:42;;;;;;;6.72;3.88;;;21.80;99.90;;;;;;4932566;29;20254;-69
2023/05/30 08:17:11;;;;;;;11.77;4.63;;;21.70;99.90;;;;;;4928168;29;20728;-69
2023/05/30 08:19:39;;;;;;;6.25;3.78;;;21.10;99.90;;;;;;4931725;29;20223;-68
2023/05/30 08:22:06;;;;;;;4.55;3.30;;;22.20;99.90;;;;;;4917958;29;20757;-70
2023/05/30 08:24:33;;;;;;;110.00;7.00;;;22.90;99.90;;;;;;4930306;29;20226;-71
2023/05/30 08:27:01;;;;;;;9.07;3.60;;;24.30;99.90;;;;;;4932959;29;20192;-63
2023/05/30 08:29:28;;;;;;;7.85;3.92;;;23.20;99.90;;;;;;4925608;29;20203;-62
2023/05/30 08:31:55;;;;;;;11.68;4.47;;;24.10;99.90;;;;;;4911639;29;20456;-62
2023/05/30 08:34:24;;;;;;;11.48;3.65;;;24.50;99.90;;;;;;4930814;29;20201;-62
2023/05/30 08:36:55;;;;;;;10.88;3.50;;;25.40;99.90;;;;;;4931598;29;20243;-62
2023/05/30 08:39:22;;;;;;;7.72;3.95;;;26.50;99.90;;;;;;4927866;29;20222;-59
2023/05/30 08:41:49;;;;;;;10.45;3.80;;;28.40;99.90;;;;;;4932247;29;20619;-63
2023/05/30 08:44:16;;;;;;;9.50;3.80;;;29.50;99.90;;;;;;4927829;29;20255;-65
2023/05/30 08:46:44;;;;;;;7.38;3.17;;;29.40;99.90;;;;;;4922014;29;20211;-62
2023/05/30 08:49:20;;;;;;;7.25;3.40;;;29.60;99.90;;;;;;4926814;29;20290;-62
2023/05/30 08:51:48;;;;;;;8.80;3.67;;;26.20;99.90;;;;;;4927822;29;20206;-62
2023/05/30 08:54:19;;;;;;;8.88;3.88;;;25.00;99.90;;;;;;4928979;29;20231;-62
2023/05/30 08:56:54;;;;;;;8.40;3.58;;;24.90;99.90;;;;;;4911453;29;20567;-61
2023/05/30 08:59:26;;;;;;;6.75;3.10;;;27.00;99.90;;;;;;4930117;29;20237;-63
2023/05/30 09:01:55;;;;;;;5.85;3.03;;;28.70;99.90;;;;;;4927553;29;20196;-64
2023/05/30 09:04:23;;;;;;;6.53;3.47;;;29.60;99.90;;;;;;4922116;29;20246;-61
2023/05/30 09:06:52;;;;;;;7.25;3.50;;;28.90;99.90;;;;;;4932318;29;20223;-59
2023/05/30 09:09:21;;;;;;;7.20;3.05;;;30.10;99.90;;;;;;4934051;29;20210;-62
2023/05/30 09:11:50;;;;;;;6.03;2.92;;;30.40;99.90;;;;;;4928294;29;20191;-62
2023/05/30 09:14:17;;;;;;;5.18;2.83;;;29.40;99.90;;;;;;4927035;29;20195;-61
2023/05/30 09:16:44;;;;;;;12.52;3.15;;;31.00;99.90;;;;;;4932424;29;20199;-61
2023/05/30 09:19:11;;;;;;;10.07;3.67;;;32.90;99.90;;;;;;4909416;29;20275;-61
2023/05/30 09:21:39;;;;;;;8.20;3.63;;;32.20;99.90;;;;;;4912866;29;20677;-62
2023/05/30 09:24:07;;;;;;;7.78;3.67;;;28.30;99.90;;;;;;4916101;29;20207;-62
2023/05/30 09:26:33;;;;;;;5.10;2.72;;;27.60;99.90;;;;;;4927972;29;20219;-61
2023/05/30 09:29:11;;;;;;;7.38;3.35;;;28.80;99.90;;;;;;4900962;29;20199;-61
2023/05/30 09:31:40;;;;;;;7.15;3.42;;;29.70;99.90;;;;;;4925026;29;20196;-62
2023/05/30 09:34:07;;;;;;;6.65;3.10;;;30.60;99.90;;;;;;4931321;29;20282;-60
2023/05/30 09:36:35;;;;;;;5.18;2.80;;;30.20;99.90;;;;;;4933162;29;20273;-60
2023/05/30 09:39:05;;;;;;;5.78;2.97;;;31.60;99.90;;;;;;4918450;29;20949;-61
2023/05/30 09:45:32;;;;;;;7.55;3.13;;;28.30;99.90;;;;;;4937118;29;20238;-60
2023/05/30 09:47:59;;;;;;;9.73;3.50;;;29.20;99.90;;;;;;4927220;29;20255;-62
2023/05/30 09:50:27;;;;;;;4.50;2.85;;;28.50;99.90;;;;;;4936598;29;20290;-62
2023/05/30 09:52:56;;;;;;;5.80;3.05;;;29.50;99.90;;;;;;4907760;29;20191;-62
2023/05/30 09:55:25;;;;;;;6.15;3.38;;;29.50;99.90;;;;;;4928658;29;20678;-62
2023/05/30 09:57:53;;;;;;;9.68;3.92;;;28.10;99.90;;;;;;4935337;29;20203;-62
2023/05/30 10:00:25;;;;;;;9.32;3.75;;;25.50;99.90;;;;;;4925501;29;20231;-62
2023/05/30 10:02:53;;;;;;;10.05;3.47;;;25.10;99.90;;;;;;4914606;29;20358;-60
2023/05/30 10:05:24;;;;;;;5.75;3.13;;;26.20;99.90;;;;;;4922560;29;20202;-63
2023/05/30 10:07:54;;;;;;;8.13;3.92;;;28.80;99.90;;;;;;4926525;29;20195;-57
2023/05/30 10:10:21;;;;;;;7.60;3.45;;;28.20;99.90;;;;;;4909004;29;20283;-60
2023/05/30 10:12:50;;;;;;;7.88;3.88;;;26.40;99.90;;;;;;4900338;29;20207;-59
2023/05/30 10:15:19;;;;;;;7.63;3.67;;;26.40;99.90;;;;;;4932190;29;20203;-64
2023/05/30 10:17:52;;;;;;;8.25;3.25;;;27.30;99.90;;;;;;4930118;29;20226;-69
2023/05/30 10:20:23;;;;;;;11.48;4.00;;;26.70;99.90;;;;;;4927475;29;20262;-60
2023/05/30 10:22:53;;;;;;;10.65;4.43;;;26.90;99.90;;;;;;4911755;29;20199;-58
2023/05/30 10:25:23;;;;;;;6.85;3.72;;;25.90;99.90;;;;;;4927374;29;20196;-58
2023/05/30 10:27:56;;;;;;;5.93;3.92;;;25.90;99.90;;;;;;4916914;29;20191;-60
2023/05/30 10:30:28;;;;;;;10.68;4.55;;;26.40;99.90;;;;;;4923261;29;20673;-61
2023/05/30 10:33:08;;;;;;;8.55;3.80;;;26.30;99.90;;;;;;4922374;29;20207;-61
2023/05/30 10:35:37;;;;;;;8.95;4.43;;;26.50;99.90;;;;;;4925783;29;20321;-62
2023/05/30 10:38:11;;;;;;;7.25;3.88;;;28.10;99.90;;;;;;4923744;29;20681;-62
2023/05/30 10:40:48;;;;;;;10.70;4.38;;;30.10;99.90;;;;;;4907771;29;20241;-62
2023/05/30 10:43:34;;;;;;;9.43;3.53;;;30.70;99.90;;;;;;4925387;29;20760;-60
2023/05/30 10:46:20;;;;;;;7.38;3.45;;;29.40;99.90;;;;;;4925905;29;20191;-62
2023/05/30 10:48:56;;;;;;;7.15;3.67;;;29.00;99.90;;;;;;4930009;29;20684;-62
2023/05/30 10:51:23;;;;;;;6.63;3.83;;;29.20;99.90;;;;;;4908649;29;20700;-62
2023/05/30 10:53:50;;;;;;;8.55;3.92;;;28.00;99.90;;;;;;4921641;29;20199;-62
2023/05/30 10:56:26;;;;;;;7.50;3.60;;;28.50;99.90;;;;;;4931960;29;20199;-62
2023/05/30 10:58:53;;;;;;;6.03;4.50;;;28.80;99.90;;;;;;4927896;29;20649;-60
2023/05/30 11:01:32;;;;;;;9.00;4.25;;;27.30;99.90;;;;;;4915675;29;20223;-62
2023/05/30 11:04:11;;;;;;;6.82;3.65;;;27.00;99.90;;;;;;4925339;29;20701;-63
2023/05/30 11:06:43;;;;;;;9.73;4.30;;;27.90;99.90;;;;;;4926079;29;20195;-62
2023/05/30 11:09:14;;;;;;;7.18;3.72;;;28.80;99.90;;;;;;4928762;29;20654;-61
2023/05/30 11:11:55;;;;;;;9.77;3.22;;;28.90;99.90;;;;;;4915245;29;20200;-62
2023/05/30 11:14:32;;;;;;;6.32;3.17;;;28.60;99.90;;;;;;4896011;29;20199;-61
2023/05/30 11:17:06;;;;;;;7.45;3.63;;;26.00;99.90;;;;;;4931114;29;20191;-60
2023/05/30 11:19:37;;;;;;;9.40;4.18;;;25.40;99.90;;;;;;4915022;29;20232;-60
2023/05/30 11:22:19;;;;;;;7.35;3.65;;;25.90;99.90;;;;;;4928460;29;20192;-61
2023/05/30 11:24:46;;;;;;;9.07;3.78;;;25.50;99.90;;;;;;4926938;29;20733;-62
2023/05/30 11:27:16;;;;;;;7.93;3.80;;;27.10;99.90;;;;;;4922265;29;20204;-61
2023/05/30 11:29:51;;;;;;;8.98;3.72;;;28.50;99.90;;;;;;4893839;29;20206;-61
2023/05/30 11:32:20;;;;;;;9.73;4.93;;;29.00;99.90;;;;;;4907794;29;20203;-62
2023/05/30 11:34:57;;;;;;;6.70;3.33;;;26.30;99.90;;;;;;4927735;29;20207;-61
2023/05/30 11:37:35;;;;;;;8.57;3.88;;;25.50;99.90;;;;;;4917222;29;20306;-64
2023/05/30 11:40:12;;;;;;;9.07;3.75;;;25.60;99.90;;;;;;4928966;29;20214;-64
2023/05/30 11:42:39;;;;;;;9.05;3.25;;;24.20;99.90;;;;;;4927114;29;20211;-61
2023/05/30 11:45:07;;;;;;;7.05;3.80;;;25.60;99.90;;;;;;4930425;29;20191;-61
2023/05/30 11:47:35;;;;;;;7.53;4.00;;;26.50;99.90;;;;;;4910171;29;20692;-61
2023/05/30 11:50:06;;;;;;;8.20;3.40;;;25.50;99.90;;;;;;4903554;29;20196;-60
2023/05/30 11:52:42;;;;;;;10.18;3.75;;;25.50;99.90;;;;;;4918797;29;20203;-61
2023/05/30 11:55:09;;;;;;;7.00;3.80;;;26.60;99.90;;;;;;4927856;29;20685;-60
2023/05/30 11:57:37;;;;;;;5.53;3.28;;;26.50;99.90;;;;;;4920461;29;21079;-62
2023/05/30 12:00:11;;;;;;;9.57;3.45;;;26.90;99.90;;;;;;4924421;29;20239;-62
2023/05/30 12:02:40;;;;;;;6.82;3.40;;;27.40;99.90;;;;;;4922834;29;20276;-61
2023/05/30 12:05:08;;;;;;;6.47;3.65;;;28.10;99.90;;;;;;4925933;29;20196;-62
2023/05/30 12:07:35;;;;;;;5.53;3.22;;;28.10;99.90;;;;;;4919252;29;20202;-62
2023/05/30 12:10:03;;;;;;;7.05;3.30;;;27.30;99.90;;;;;;4902206;29;20208;-70
2023/05/30 12:12:31;;;;;;;10.43;3.58;;;26.10;99.90;;;;;;4924702;29;20570;-69
2023/05/30 12:15:03;;;;;;;7.90;3.35;;;24.40;99.90;;;;;;4908015;29;20295;-69
2023/05/30 12:17:30;;;;;;;11.43;3.63;;;24.00;99.90;;;;;;4924115;29;20215;-69
2023/05/30 12:20:00;;;;;;;8.88;3.80;;;24.00;99.90;;;;;;4923716;29;20698;-69
2023/05/30 12:22:30;;;;;;;6.28;3.10;;;24.40;99.90;;;;;;4918939;29;20204;-68
2023/05/30 12:24:58;;;;;;;5.38;3.08;;;24.70;99.90;;;;;;4921158;29;20188;-69
2023/05/30 12:27:26;;;;;;;6.72;3.15;;;25.20;99.90;;;;;;4910876;29;20697;-69
2023/05/30 12:29:53;;;;;;;5.72;3.38;;;24.20;99.90;;;;;;4927837;29;20283;-70
2023/05/30 12:32:30;;;;;;;6.35;2.63;;;23.50;99.90;;;;;;4894058;29;20203;-69
2023/05/30 12:34:58;;;;;;;5.97;3.05;;;23.30;99.90;;;;;;4928374;29;20258;-69
2023/05/30 12:37:25;;;;;;;8.13;3.25;;;23.60;99.90;;;;;;4921999;29;20222;-69
2023/05/30 12:39:56;;;;;;;7.15;3.15;;;23.70;99.90;;;;;;4909793;29;20378;-69
2023/05/30 12:42:24;;;;;;;7.03;3.28;;;23.20;99.90;;;;;;4926790;29;20199;-68
2023/05/30 12:44:53;;;;;;;8.20;3.53;;;22.10;99.90;;;;;;4911651;29;20634;-70
2023/05/30 12:47:21;;;;;;;6.88;2.90;;;22.00;99.90;;;;;;4927905;29;20857;-69
2023/05/30 12:49:49;;;;;;;4.65;2.65;;;22.70;99.90;;;;;;4926063;29;20213;-70
2023/05/30 12:52:20;;;;;;;7.32;3.72;;;23.00;99.90;;;;;;4912441;29;20701;-69
2023/05/30 12:54:48;;;;;;;8.38;3.35;;;23.10;99.90;;;;;;4929895;29;20251;-69
2023/05/30 12:57:18;;;;;;;7.18;2.92;;;22.00;99.90;;;;;;4903126;29;20584;-64